createdAt,value
2018-06-12T00:00:04.995Z,20.20
2018-06-12T00:01:04.967Z,20.40
2018-06-12T00:02:04.931Z,20.60
2018-06-12T00:03:04.895Z,19.40
2018-06-12T00:04:04.858Z,20.90
2018-06-12T00:05:04.831Z,19.70
2018-06-12T00:06:04.796Z,18.70
2018-06-12T00:07:04.774Z,19.30
2018-06-12T00:08:04.759Z,19.00
2018-06-12T00:09:04.693Z,19.10
2018-06-12T00:10:04.665Z,18.90
2018-06-12T00:11:04.626Z,19.10
2018-06-12T00:12:04.592Z,19.80
2018-06-12T00:13:04.565Z,19.30
2018-06-12T00:14:04.534Z,20.00
2018-06-12T00:15:04.493Z,19.60
2018-06-12T00:16:04.467Z,19.30
2018-06-12T00:17:04.423Z,19.30
2018-06-12T00:18:04.391Z,19.40
2018-06-12T00:19:04.358Z,19.80
2018-06-12T00:20:04.333Z,20.90
2018-06-12T00:21:04.289Z,20.50
2018-06-12T00:22:04.256Z,20.10
2018-06-12T00:23:04.223Z,19.80
2018-06-12T00:24:04.193Z,19.40
2018-06-12T00:25:04.166Z,19.40
2018-06-12T00:26:04.129Z,19.50
2018-06-12T00:27:04.093Z,19.90
2018-06-12T00:28:04.063Z,20.10
2018-06-12T00:29:04.021Z,19.50
2018-06-12T00:30:03.988Z,20.40
2018-06-12T00:31:03.956Z,20.50
2018-06-12T00:32:03.926Z,20.90
2018-06-12T00:33:03.890Z,19.50
2018-06-12T00:34:03.857Z,20.00
2018-06-12T00:35:03.823Z,20.00
2018-06-12T00:36:03.782Z,20.20
2018-06-12T00:37:03.758Z,20.20
2018-06-12T00:38:03.721Z,19.20
2018-06-12T00:39:03.688Z,20.10
2018-06-12T00:40:03.653Z,19.80
2018-06-12T00:41:03.613Z,19.80
2018-06-12T00:42:03.583Z,20.00
2018-06-12T00:43:03.551Z,19.40
2018-06-12T00:44:03.517Z,20.50
2018-06-12T00:45:03.490Z,19.70
2018-06-12T00:46:03.451Z,20.10
2018-06-12T00:47:03.421Z,20.80
2018-06-12T00:48:03.390Z,20.10
2018-06-12T00:49:03.345Z,19.80
2018-06-12T00:50:03.314Z,19.50
2018-06-12T00:51:03.284Z,19.30
2018-06-12T00:52:03.253Z,20.70
2018-06-12T00:53:03.211Z,21.00
2018-06-12T00:54:03.180Z,20.70
2018-06-12T00:55:03.148Z,21.10
2018-06-12T00:56:03.113Z,20.40
2018-06-12T00:57:03.086Z,19.80
2018-06-12T00:58:03.052Z,21.40
2018-06-12T00:59:03.020Z,20.40
2018-06-12T01:00:02.991Z,21.10
2018-06-12T01:01:02.944Z,20.00
2018-06-12T01:02:02.911Z,20.70
2018-06-12T01:03:02.883Z,20.80
2018-06-12T01:04:02.846Z,19.90
2018-06-12T01:05:02.822Z,21.00
2018-06-12T01:06:02.802Z,20.20
2018-06-12T01:07:02.746Z,20.40
2018-06-12T01:08:02.708Z,21.00
2018-06-12T01:09:02.681Z,20.50
2018-06-12T01:10:02.646Z,21.00
2018-06-12T01:11:02.612Z,20.90
2018-06-12T01:12:02.586Z,20.50
2018-06-12T01:13:02.543Z,20.50
2018-06-12T01:14:02.508Z,21.30
2018-06-12T01:15:02.475Z,20.10
2018-06-12T01:16:02.468Z,21.30
2018-06-12T01:17:02.418Z,21.20
2018-06-12T01:18:02.376Z,20.50
2018-06-12T01:19:02.345Z,20.40
2018-06-12T01:20:02.313Z,20.90
2018-06-12T01:21:02.269Z,20.90
2018-06-12T01:22:02.239Z,21.10
2018-06-12T01:23:02.212Z,20.50
2018-06-12T01:24:02.180Z,22.00
2018-06-12T01:25:02.137Z,21.70
2018-06-12T01:26:02.108Z,21.90
2018-06-12T01:27:02.077Z,20.30
2018-06-12T01:28:02.038Z,21.20
2018-06-12T01:29:02.033Z,22.80
2018-06-12T01:30:01.977Z,21.80
2018-06-12T01:31:01.965Z,23.10
2018-06-12T01:32:01.911Z,21.90
2018-06-12T01:33:01.868Z,23.00
2018-06-12T01:34:01.839Z,22.70
2018-06-12T01:35:01.803Z,22.90
2018-06-12T01:36:01.766Z,22.90
2018-06-12T01:37:01.739Z,22.20
2018-06-12T01:38:01.710Z,21.80
2018-06-12T01:39:01.670Z,22.10
2018-06-12T01:40:01.633Z,22.10
2018-06-12T01:41:01.606Z,22.90
2018-06-12T01:42:01.572Z,22.90
2018-06-12T01:43:01.570Z,22.60
2018-06-12T01:44:01.507Z,22.00
2018-06-12T01:45:01.468Z,21.60
2018-06-12T01:46:01.437Z,22.70
2018-06-12T01:47:01.400Z,22.90
2018-06-12T01:48:01.373Z,22.90
2018-06-12T01:49:01.338Z,22.80
2018-06-12T01:50:01.309Z,22.70
2018-06-12T01:51:01.277Z,22.40
2018-06-12T01:52:01.234Z,22.20
2018-06-12T01:53:01.200Z,23.40
2018-06-12T01:54:01.166Z,22.50
2018-06-12T01:55:01.139Z,23.20
2018-06-12T01:56:01.102Z,22.50
2018-06-12T01:57:01.067Z,23.50
2018-06-12T01:58:01.033Z,22.90
2018-06-12T01:59:01.001Z,22.40
2018-06-12T02:00:00.983Z,22.40
2018-06-12T02:01:00.935Z,23.00
2018-06-12T02:02:00.902Z,24.20
2018-06-12T02:03:00.870Z,23.00
2018-06-12T02:04:00.837Z,22.10
2018-06-12T02:05:00.807Z,22.70
2018-06-12T02:06:00.765Z,22.40
2018-06-12T02:07:00.732Z,22.90
2018-06-12T02:08:00.700Z,23.20
2018-06-12T02:09:00.669Z,24.00
2018-06-12T02:13:05.827Z,24.30
2018-06-12T02:14:05.790Z,24.10
2018-06-12T02:15:05.759Z,24.20
2018-06-12T02:16:05.750Z,23.90
2018-06-12T02:17:05.694Z,23.30
2018-06-12T02:18:05.658Z,24.00
2018-06-12T02:19:05.625Z,24.50
2018-06-12T02:20:05.589Z,23.50
2018-06-12T02:21:05.556Z,24.60
2018-06-12T02:22:05.530Z,22.90
2018-06-12T02:23:05.485Z,23.40
2018-06-12T02:24:05.452Z,23.60
2018-06-12T02:25:05.419Z,24.40
2018-06-12T02:26:05.384Z,21.80
2018-06-12T02:27:05.365Z,23.30
2018-06-12T02:28:05.320Z,23.10
2018-06-12T02:29:05.293Z,23.40
2018-06-12T02:30:05.257Z,23.60
2018-06-12T02:31:05.216Z,22.70
2018-06-12T02:32:05.182Z,23.10
2018-06-12T02:33:05.153Z,23.30
2018-06-12T02:34:05.119Z,23.10
2018-06-12T02:35:05.081Z,22.60
2018-06-12T02:36:05.051Z,21.60
2018-06-12T02:37:05.038Z,21.90
2018-06-12T02:38:04.976Z,22.70
2018-06-12T02:39:04.953Z,23.00
2018-06-12T02:40:04.936Z,22.80
2018-06-12T02:41:04.881Z,21.80
2018-06-12T02:42:04.847Z,21.80
2018-06-12T02:43:04.812Z,22.90
2018-06-12T02:44:04.802Z,22.90
2018-06-12T02:45:04.744Z,23.80
2018-06-12T02:46:04.707Z,22.40
2018-06-12T02:47:04.678Z,22.20
2018-06-12T02:48:04.643Z,22.10
2018-06-12T02:49:04.616Z,21.70
2018-06-12T02:50:04.569Z,23.10
2018-06-12T02:51:04.545Z,22.60
2018-06-12T02:52:04.510Z,21.50
2018-06-12T02:53:04.475Z,21.80
2018-06-12T02:54:04.441Z,22.70
2018-06-12T02:55:04.407Z,22.10
2018-06-12T02:56:04.370Z,22.40
2018-06-12T02:57:04.338Z,23.00
2018-06-12T02:58:04.301Z,22.30
2018-06-12T02:59:04.274Z,23.40
2018-06-12T03:00:04.237Z,21.90
2018-06-12T03:01:04.203Z,21.80
2018-06-12T03:02:04.172Z,22.30
2018-06-12T03:03:04.141Z,22.00
2018-06-12T03:04:04.935Z,23.40
2018-06-12T03:05:04.075Z,23.70
2018-06-12T03:06:04.041Z,23.80
2018-06-12T03:07:03.992Z,22.30
2018-06-12T03:08:03.961Z,22.80
2018-06-12T03:09:03.928Z,23.00
2018-06-12T03:10:03.895Z,23.10
2018-06-12T03:11:03.874Z,21.70
2018-06-12T03:12:03.837Z,23.50
2018-06-12T03:13:03.792Z,22.10
2018-06-12T03:14:03.760Z,23.40
2018-06-12T03:15:03.748Z,21.80
2018-06-12T03:16:03.691Z,23.10
2018-06-12T03:17:03.678Z,22.40
2018-06-12T03:18:03.621Z,23.00
2018-06-12T03:19:03.589Z,23.30
2018-06-12T03:20:03.564Z,22.90
2018-06-12T03:21:03.521Z,22.90
2018-06-12T03:22:03.480Z,22.70
2018-06-12T03:23:03.451Z,22.90
2018-06-12T03:24:03.422Z,23.60
2018-06-12T03:25:03.383Z,22.80
2018-06-12T03:26:03.363Z,24.00
2018-06-12T03:27:03.314Z,23.30
2018-06-12T03:28:03.282Z,23.90
2018-06-12T03:29:03.246Z,23.30
2018-06-12T03:30:03.214Z,24.10
2018-06-12T03:31:03.183Z,23.10
2018-06-12T03:32:03.146Z,23.20
2018-06-12T03:33:03.114Z,23.10
2018-06-12T03:34:03.079Z,23.90
2018-06-12T03:35:03.045Z,23.90
2018-06-12T03:36:03.009Z,22.80
2018-06-12T03:37:02.972Z,22.80
2018-06-12T03:38:02.939Z,24.60
2018-06-12T03:39:02.900Z,23.90
2018-06-12T03:40:02.870Z,23.40
2018-06-12T03:41:02.835Z,24.00
2018-06-12T03:42:02.796Z,23.10
2018-06-12T03:43:02.770Z,23.70
2018-06-12T03:44:02.736Z,23.70
2018-06-12T03:45:02.702Z,22.80
2018-06-12T03:46:02.670Z,23.60
2018-06-12T03:47:02.628Z,22.40
2018-06-12T03:48:02.595Z,22.50
2018-06-12T03:49:02.560Z,22.90
2018-06-12T03:50:02.523Z,22.60
2018-06-12T03:51:02.493Z,22.90
2018-06-12T03:52:02.457Z,24.10
2018-06-12T04:08:40.523Z,18.60
2018-06-12T04:09:40.453Z,22.00
2018-06-12T04:10:40.408Z,23.00
2018-06-12T04:11:40.374Z,24.30
2018-06-12T04:12:40.338Z,25.30
2018-06-12T04:13:40.298Z,24.20
2018-06-12T04:14:40.306Z,24.00
2018-06-12T04:15:40.266Z,23.00
2018-06-12T04:16:40.186Z,23.70
2018-06-12T04:17:40.152Z,23.00
2018-06-12T04:18:40.107Z,23.40
2018-06-12T04:19:40.080Z,23.30
2018-06-12T04:20:40.043Z,23.50
2018-06-12T04:21:40.008Z,24.40
2018-06-12T04:22:39.969Z,22.50
2018-06-12T04:23:39.928Z,22.90
2018-06-12T04:24:39.896Z,24.40
2018-06-12T04:25:39.860Z,23.90
2018-06-12T04:26:39.833Z,24.00
2018-06-12T04:27:39.791Z,24.20
2018-06-12T04:28:39.756Z,23.90
2018-06-12T04:29:39.721Z,23.30
2018-06-12T04:30:39.689Z,23.60
2018-06-12T04:31:39.652Z,24.20
2018-06-12T04:32:39.620Z,24.10
2018-06-12T04:33:39.589Z,24.00
2018-06-12T04:34:39.548Z,23.50
2018-06-12T04:35:39.516Z,24.10
2018-06-12T04:36:39.487Z,24.70
2018-06-12T04:37:39.443Z,23.50
2018-06-12T04:38:39.403Z,23.20
2018-06-12T04:39:39.375Z,23.50
2018-06-12T04:40:39.341Z,25.10
2018-06-12T04:41:39.301Z,25.00
2018-06-12T04:42:39.275Z,24.00
2018-06-12T04:43:39.242Z,25.40
2018-06-12T04:44:39.201Z,22.90
2018-06-12T04:45:39.189Z,22.90
2018-06-12T04:46:39.138Z,23.50
2018-06-12T04:47:39.093Z,24.10
2018-06-12T04:48:39.059Z,24.40
2018-06-12T04:49:39.027Z,24.20
2018-06-12T04:50:38.987Z,22.80
2018-06-12T04:51:38.961Z,24.30
2018-06-12T04:52:38.923Z,23.90
2018-06-12T04:53:38.897Z,25.70
2018-06-12T04:54:38.882Z,23.80
2018-06-12T04:55:38.832Z,24.00
2018-06-12T04:56:38.784Z,24.30
2018-06-12T04:57:38.755Z,24.30
2018-06-12T04:58:38.717Z,24.50
2018-06-12T04:59:38.677Z,24.50
2018-06-12T05:00:38.653Z,25.40
2018-06-12T05:01:38.631Z,24.80
2018-06-12T05:02:38.578Z,24.90
2018-06-12T05:03:38.544Z,24.50
2018-06-12T05:04:38.513Z,26.20
2018-06-12T05:05:38.488Z,25.50
2018-06-12T05:06:38.446Z,25.20
2018-06-12T05:07:38.438Z,26.40
2018-06-12T05:08:38.374Z,25.60
2018-06-12T05:09:38.335Z,25.90
2018-06-12T05:10:38.324Z,25.60
2018-06-12T05:11:38.270Z,25.70
2018-06-12T05:12:38.237Z,25.70
2018-06-12T05:13:38.198Z,25.30
2018-06-12T05:14:38.163Z,24.80
2018-06-12T05:15:38.136Z,24.30
2018-06-12T05:16:38.120Z,25.50
2018-06-12T05:17:38.061Z,25.50
2018-06-12T05:18:38.045Z,25.60
2018-06-12T05:19:38.006Z,25.50
2018-06-12T05:20:37.960Z,25.40
2018-06-12T05:21:37.927Z,24.90
2018-06-12T05:22:37.885Z,24.80
2018-06-12T05:23:37.862Z,25.30
2018-06-12T05:24:37.846Z,23.60
2018-06-12T05:25:37.858Z,26.00
2018-06-12T05:26:37.791Z,25.70
2018-06-12T05:27:37.725Z,25.50
2018-06-12T05:28:37.684Z,25.90
2018-06-12T05:29:37.651Z,25.70
2018-06-12T05:30:37.622Z,27.70
2018-06-12T05:31:37.579Z,27.90
2018-06-12T05:32:37.544Z,27.10
2018-06-12T05:33:37.517Z,27.10
2018-06-12T05:34:37.471Z,25.80
2018-06-12T05:35:37.449Z,26.10
2018-06-12T05:36:37.416Z,26.20
2018-06-12T05:37:37.375Z,25.90
2018-06-12T05:38:37.338Z,26.20
2018-06-12T05:39:37.297Z,26.10
2018-06-12T05:40:37.267Z,26.40
2018-06-12T05:41:37.240Z,26.70
2018-06-12T05:42:37.196Z,27.20
2018-06-12T05:43:37.174Z,27.40
2018-06-12T05:44:37.135Z,26.80
2018-06-12T05:45:37.094Z,27.30
2018-06-12T05:46:37.062Z,27.10
2018-06-12T05:47:37.030Z,27.00
2018-06-12T05:48:37.000Z,27.40
2018-06-12T05:49:36.963Z,25.90
2018-06-12T05:50:36.935Z,27.80
2018-06-12T05:51:36.910Z,26.80
2018-06-12T05:52:36.868Z,28.00
2018-06-12T05:53:36.819Z,26.30
2018-06-12T05:54:36.786Z,28.00
2018-06-12T05:55:36.757Z,26.40
2018-06-12T05:56:36.719Z,26.80
2018-06-12T05:57:36.687Z,27.50
2018-06-12T05:58:36.650Z,26.20
2018-06-12T05:59:36.630Z,27.40
2018-06-12T06:00:36.580Z,26.80
2018-06-12T06:01:36.543Z,28.10
2018-06-12T06:02:36.513Z,27.60
2018-06-12T06:03:36.472Z,29.60
2018-06-12T06:04:36.445Z,30.20
2018-06-12T06:05:36.408Z,30.20
2018-06-12T06:06:36.367Z,29.40
2018-06-12T06:07:36.339Z,29.90
2018-06-12T06:08:36.304Z,28.60
2018-06-12T06:09:36.274Z,28.80
2018-06-12T06:10:36.287Z,27.40
2018-06-12T06:11:36.200Z,28.80
2018-06-12T06:12:36.182Z,29.80
2018-06-12T06:13:36.132Z,30.50
2018-06-12T06:14:36.094Z,29.90
2018-06-12T06:15:36.068Z,30.60
2018-06-12T06:16:36.030Z,29.30
2018-06-12T06:17:36.003Z,29.90
2018-06-12T06:18:35.958Z,28.90
2018-06-12T06:19:35.935Z,29.80
2018-06-12T06:20:35.899Z,30.00
2018-06-12T06:21:35.862Z,30.40
2018-06-12T06:22:35.878Z,29.90
2018-06-12T06:23:35.787Z,29.80
2018-06-12T06:24:35.762Z,30.00
2018-06-12T06:25:35.719Z,30.90
2018-06-12T06:26:35.685Z,29.40
2018-06-12T06:27:35.662Z,32.20
2018-06-12T06:28:35.616Z,31.20
2018-06-12T06:29:35.584Z,29.80
2018-06-12T06:30:35.548Z,31.80
2018-06-12T06:31:35.511Z,31.40
2018-06-12T06:32:35.485Z,31.80
2018-06-12T06:33:35.447Z,30.70
2018-06-12T06:34:35.416Z,31.10
2018-06-12T06:35:35.372Z,32.80
2018-06-12T06:36:35.347Z,32.80
2018-06-12T06:37:35.303Z,30.40
2018-06-12T06:38:35.285Z,32.10
2018-06-12T06:39:35.239Z,32.20
2018-06-12T06:40:35.200Z,30.60
2018-06-12T06:41:35.168Z,30.50
2018-06-12T06:42:35.140Z,31.70
2018-06-12T06:43:35.095Z,32.20
2018-06-12T06:44:35.063Z,32.00
2018-06-12T06:45:35.032Z,31.00
2018-06-12T06:46:34.995Z,31.50
2018-06-12T06:47:34.974Z,31.50
2018-06-12T06:48:34.928Z,31.00
2018-06-12T06:49:34.890Z,32.20
2018-06-12T06:50:34.853Z,32.40
2018-06-12T06:51:34.842Z,30.70
2018-06-12T06:52:34.790Z,31.20
2018-06-12T06:53:34.808Z,30.60
2018-06-12T06:54:34.722Z,31.20
2018-06-12T06:55:34.685Z,33.20
2018-06-12T06:56:34.654Z,32.60
2018-06-12T06:57:34.617Z,32.20
2018-06-12T06:58:34.590Z,32.20
2018-06-12T06:59:34.557Z,32.30
2018-06-12T07:00:34.517Z,32.30
2018-06-12T07:01:34.487Z,32.60
2018-06-12T07:02:34.452Z,31.10
2018-06-12T07:03:34.413Z,31.90
2018-06-12T07:04:34.378Z,30.90
2018-06-12T07:05:34.356Z,30.70
2018-06-12T07:06:34.325Z,30.90
2018-06-12T07:07:34.270Z,31.70
2018-06-12T07:08:34.241Z,33.00
2018-06-12T07:09:34.206Z,31.80
2018-06-12T07:10:34.170Z,30.70
2018-06-12T07:11:34.140Z,29.90
2018-06-12T07:12:34.106Z,29.90
2018-06-12T07:13:34.069Z,30.90
2018-06-12T07:14:34.041Z,31.40
2018-06-12T07:15:33.998Z,30.20
2018-06-12T07:16:33.969Z,30.20
2018-06-12T07:17:33.935Z,30.30
2018-06-12T07:18:33.896Z,30.40
2018-06-12T07:19:33.872Z,29.90
2018-06-12T07:20:33.838Z,29.80
2018-06-12T07:21:33.800Z,29.40
2018-06-12T07:22:33.759Z,28.90
2018-06-12T07:23:33.736Z,30.00
2018-06-12T07:24:33.696Z,29.40
2018-06-12T07:25:33.666Z,29.70
2018-06-12T07:26:33.628Z,30.70
2018-06-12T07:27:33.589Z,31.90
2018-06-12T07:28:33.558Z,28.60
2018-06-12T07:29:33.523Z,30.80
2018-06-12T07:30:33.488Z,29.60
2018-06-12T07:31:33.458Z,31.80
2018-06-12T07:32:33.425Z,30.70
2018-06-12T07:33:33.388Z,30.70
2018-06-12T07:34:33.358Z,30.00
2018-06-12T07:35:33.334Z,31.40
2018-06-12T07:36:33.319Z,31.60
2018-06-12T07:37:33.272Z,29.10
2018-06-12T07:38:33.230Z,29.90
2018-06-12T07:39:33.185Z,29.30
2018-06-12T07:40:33.153Z,30.10
2018-06-12T07:41:33.117Z,29.90
2018-06-12T07:42:33.083Z,29.70
2018-06-12T07:43:33.072Z,30.40
2018-06-12T07:44:33.020Z,31.50
2018-06-12T07:45:32.985Z,30.10
2018-06-12T07:46:32.953Z,29.80
2018-06-12T07:47:32.911Z,30.00
2018-06-12T07:48:32.882Z,29.70
2018-06-12T07:49:32.847Z,30.10
2018-06-12T07:50:32.813Z,30.10
2018-06-12T07:51:32.800Z,29.70
2018-06-12T07:52:32.749Z,29.10
2018-06-12T07:53:32.709Z,30.60
2018-06-12T07:54:32.680Z,31.90
2018-06-12T07:55:32.647Z,29.50
2018-06-12T07:56:32.612Z,28.90
2018-06-12T07:57:32.577Z,30.60
2018-06-12T07:58:32.548Z,30.10
2018-06-12T07:59:32.507Z,29.80
2018-06-12T08:00:32.475Z,29.90
2018-06-12T08:01:32.441Z,29.50
2018-06-12T08:02:32.424Z,29.00
2018-06-12T08:03:32.382Z,28.90
2018-06-12T08:04:32.341Z,29.50
2018-06-12T08:05:32.315Z,30.90
2018-06-12T08:06:32.302Z,31.50
2018-06-12T08:07:32.235Z,29.10
2018-06-12T08:08:32.204Z,29.30
2018-06-12T08:09:32.175Z,29.80
2018-06-12T08:10:32.139Z,28.00
2018-06-12T08:11:32.102Z,28.10
2018-06-12T08:12:32.098Z,28.00
2018-06-12T08:13:32.064Z,28.10
2018-06-12T08:14:32.000Z,29.20
2018-06-12T08:15:31.975Z,29.00
2018-06-12T08:16:31.939Z,29.20
2018-06-12T08:17:31.898Z,28.90
2018-06-12T08:18:31.877Z,27.90
2018-06-12T08:19:31.838Z,27.80
2018-06-12T08:20:31.799Z,27.50
2018-06-12T08:21:31.769Z,27.10
2018-06-12T08:22:31.737Z,26.70
2018-06-12T08:23:31.703Z,28.40
2018-06-12T08:24:31.667Z,28.40
2018-06-12T08:25:31.631Z,27.60
2018-06-12T08:26:31.605Z,27.60
2018-06-12T08:27:31.563Z,26.80
2018-06-12T08:28:31.531Z,28.70
2018-06-12T08:29:31.493Z,27.40
2018-06-12T08:30:31.482Z,27.80
2018-06-12T08:31:31.438Z,27.60
2018-06-12T08:32:31.393Z,27.70
2018-06-12T08:33:31.359Z,27.60
2018-06-12T08:34:31.327Z,27.80
2018-06-12T08:35:31.313Z,27.60
2018-06-12T08:36:31.258Z,26.90
2018-06-12T08:37:31.222Z,27.10
2018-06-12T08:38:31.191Z,27.40
2018-06-12T08:39:31.163Z,27.20
2018-06-12T08:40:31.123Z,26.50
2018-06-12T08:41:31.087Z,26.60
2018-06-12T08:42:31.055Z,28.30
2018-06-12T08:43:31.033Z,29.00
2018-06-12T08:44:30.996Z,26.60
2018-06-12T08:45:30.953Z,27.90
2018-06-12T08:46:30.993Z,27.90
2018-06-12T08:47:30.882Z,26.60
2018-06-12T08:48:30.861Z,25.80
2018-06-12T08:49:30.816Z,26.10
2018-06-12T08:50:30.785Z,25.80
2018-06-12T08:51:30.752Z,26.20
2018-06-12T08:52:30.724Z,24.50
2018-06-12T08:53:30.687Z,25.10
2018-06-12T08:54:30.660Z,26.50
2018-06-12T08:55:30.623Z,24.50
2018-06-12T08:56:30.579Z,25.40
2018-06-12T08:57:30.579Z,24.30
2018-06-12T08:58:30.522Z,25.20
2018-06-12T08:59:30.483Z,25.50
2018-06-12T09:00:30.443Z,25.90
2018-06-12T09:01:30.421Z,25.80
2018-06-12T09:02:30.397Z,26.60
2018-06-12T09:03:30.347Z,25.60
2018-06-12T09:04:30.314Z,25.10
2018-06-12T09:05:30.285Z,24.20
2018-06-12T09:06:30.252Z,25.20
2018-06-12T09:07:30.205Z,24.70
2018-06-12T09:08:30.172Z,25.10
2018-06-12T09:09:30.137Z,26.30
2018-06-12T09:10:30.103Z,25.30
2018-06-12T09:11:30.077Z,25.80
2018-06-12T09:12:30.037Z,25.60
2018-06-12T09:13:30.005Z,24.80
2018-06-12T09:14:29.967Z,25.10
2018-06-12T09:15:29.941Z,25.00
2018-06-12T09:16:29.906Z,24.70
2018-06-12T09:17:29.871Z,24.30
2018-06-12T09:18:29.836Z,25.40
2018-06-12T09:19:29.818Z,24.60
2018-06-12T09:20:29.776Z,24.80
2018-06-12T09:21:29.758Z,23.60
2018-06-12T09:22:29.696Z,24.30
2018-06-12T09:23:29.675Z,24.80
2018-06-12T09:24:29.633Z,24.70
2018-06-12T09:25:29.598Z,25.60
2018-06-12T09:26:29.572Z,25.10
2018-06-12T09:27:29.529Z,24.80
2018-06-12T09:28:29.495Z,24.20
2018-06-12T09:29:29.464Z,24.00
2018-06-12T09:30:29.432Z,24.20
2018-06-12T09:31:29.394Z,24.30
2018-06-12T09:32:29.363Z,24.10
2018-06-12T09:33:29.324Z,24.40
2018-06-12T09:34:29.288Z,23.40
2018-06-12T09:35:29.266Z,24.20
2018-06-12T09:36:29.228Z,23.30
2018-06-12T09:37:29.192Z,24.00
2018-06-12T09:38:29.170Z,24.80
2018-06-12T09:39:29.120Z,25.90
2018-06-12T09:40:29.088Z,25.50
2018-06-12T09:41:29.060Z,24.20
2018-06-12T09:42:29.018Z,25.20
2018-06-12T09:43:29.043Z,25.20
2018-06-12T09:44:28.957Z,25.80
2018-06-12T09:45:28.925Z,25.80
2018-06-12T09:46:28.904Z,24.30
2018-06-12T09:47:28.858Z,24.10
2018-06-12T09:48:28.819Z,25.60
2018-06-12T09:49:28.784Z,26.60
2018-06-12T09:50:28.756Z,25.80
2018-06-12T09:51:28.720Z,26.10
2018-06-12T09:52:28.686Z,26.60
2018-06-12T09:53:28.653Z,25.90
2018-06-12T09:54:28.616Z,26.90
2018-06-12T09:55:28.588Z,24.00
2018-06-12T09:56:28.549Z,25.30
2018-06-12T09:57:28.514Z,25.90
2018-06-12T09:58:28.491Z,24.20
2018-06-12T09:59:28.444Z,22.90
2018-06-12T10:00:28.411Z,24.20
2018-06-12T10:01:28.389Z,25.20
2018-06-12T10:02:28.352Z,25.00
2018-06-12T10:03:28.310Z,24.50
2018-06-12T10:04:28.276Z,25.30
2018-06-12T10:05:28.243Z,25.40
2018-06-12T10:06:28.229Z,25.70
2018-06-12T10:07:28.180Z,26.20
2018-06-12T10:08:28.144Z,25.90
2018-06-12T10:21:35.263Z,19.80
2018-06-12T10:22:35.185Z,23.20
2018-06-12T10:23:35.142Z,24.30
2018-06-12T10:24:35.105Z,24.90
2018-06-12T10:25:35.069Z,25.20
2018-06-12T10:26:35.042Z,24.80
2018-06-12T10:27:35.022Z,25.80
2018-06-12T10:28:34.961Z,26.70
2018-06-12T10:29:34.932Z,26.00
2018-06-12T10:30:34.889Z,25.30
2018-06-12T10:31:34.851Z,26.40
2018-06-12T10:32:34.812Z,26.20
2018-06-12T10:33:34.791Z,26.10
2018-06-12T10:34:34.756Z,27.30
2018-06-12T10:35:34.710Z,26.30
2018-06-12T10:36:34.673Z,27.40
2018-06-12T10:37:34.643Z,26.80
2018-06-12T10:38:34.610Z,26.80
2018-06-12T10:39:34.573Z,26.60
2018-06-12T10:40:34.540Z,25.80
2018-06-12T10:41:34.509Z,26.30
2018-06-12T10:42:34.482Z,25.70
2018-06-12T10:43:34.448Z,26.60
2018-06-12T10:44:34.399Z,26.60
2018-06-12T10:45:34.368Z,27.40
2018-06-12T10:46:34.331Z,26.90
2018-06-12T10:47:34.299Z,26.30
2018-06-12T10:48:34.267Z,26.70
2018-06-12T10:49:34.228Z,26.80
2018-06-12T10:50:34.194Z,28.00
2018-06-12T10:51:34.163Z,27.00
2018-06-12T10:52:34.135Z,26.30
2018-06-12T10:53:34.097Z,26.50
2018-06-12T10:54:34.063Z,25.40
2018-06-12T10:55:34.025Z,25.70
2018-06-12T10:56:34.031Z,26.80
2018-06-12T10:57:33.958Z,26.80
2018-06-12T10:58:33.930Z,26.10
2018-06-12T10:59:33.919Z,25.00
2018-06-12T11:00:33.858Z,25.60
2018-06-12T11:01:33.843Z,25.60
2018-06-12T11:02:33.791Z,26.00
2018-06-12T11:03:33.774Z,26.40
2018-06-12T11:04:33.719Z,26.80
2018-06-12T11:05:33.696Z,27.10
2018-06-12T11:06:33.654Z,24.80
2018-06-12T11:07:33.638Z,25.50
2018-06-12T11:08:33.578Z,26.00
2018-06-12T11:09:33.550Z,26.30
2018-06-12T11:10:33.513Z,27.30
2018-06-12T11:11:33.485Z,27.10
2018-06-12T11:12:33.462Z,27.10
2018-06-12T11:13:33.420Z,25.20
2018-06-12T11:14:33.381Z,26.50
2018-06-12T11:15:33.354Z,25.80
2018-06-12T11:16:33.309Z,24.70
2018-06-12T11:17:33.283Z,24.80
2018-06-12T11:18:33.245Z,23.80
2018-06-12T11:19:33.214Z,24.50
2018-06-12T11:20:33.180Z,24.70
2018-06-12T11:21:33.141Z,24.60
2018-06-12T11:22:33.108Z,25.50
2018-06-12T11:23:33.075Z,24.00
2018-06-12T11:24:33.042Z,22.20
2018-06-12T11:25:33.015Z,23.40
2018-06-12T11:26:32.975Z,23.90
2018-06-12T11:27:32.940Z,23.80
2018-06-12T11:28:32.903Z,23.40
2018-06-12T11:29:32.870Z,23.40
2018-06-12T11:30:32.833Z,23.40
2018-06-12T11:31:32.805Z,22.20
2018-06-12T11:32:32.774Z,23.10
2018-06-12T11:33:32.740Z,21.10
2018-06-12T11:34:32.710Z,21.20
2018-06-12T11:35:32.668Z,22.10
2018-06-12T11:36:32.633Z,21.50
2018-06-12T11:37:32.609Z,21.00
2018-06-12T11:38:32.573Z,20.80
2018-06-12T11:39:32.532Z,21.60
2018-06-12T11:40:32.501Z,21.10
2018-06-12T11:41:32.463Z,21.00
2018-06-12T11:42:32.437Z,21.10
2018-06-12T11:43:32.400Z,20.50
2018-06-12T11:44:32.369Z,22.60
2018-06-12T11:45:32.349Z,21.50
2018-06-12T11:46:32.299Z,20.80
2018-06-12T11:47:32.264Z,21.20
2018-06-12T11:48:32.228Z,21.70
2018-06-12T11:49:32.196Z,22.30
2018-06-12T11:50:32.166Z,22.00
2018-06-12T11:51:32.132Z,22.50
2018-06-12T11:52:32.100Z,22.40
2018-06-12T11:53:32.061Z,23.50
2018-06-12T11:54:32.026Z,22.20
2018-06-12T11:55:31.991Z,22.10
2018-06-12T11:56:31.986Z,21.30
2018-06-12T11:57:31.955Z,21.20
2018-06-12T11:58:31.899Z,21.00
2018-06-12T11:59:31.882Z,20.90
2018-06-12T12:00:31.825Z,20.00
2018-06-12T12:01:31.792Z,19.40
2018-06-12T12:02:31.759Z,20.80
2018-06-12T12:03:31.727Z,21.40
2018-06-12T12:04:31.686Z,21.20
2018-06-12T12:05:31.655Z,21.90
2018-06-12T12:06:31.622Z,22.40
2018-06-12T12:07:31.587Z,22.90
2018-06-12T12:08:31.560Z,23.00
2018-06-12T12:09:31.574Z,22.50
2018-06-12T12:10:31.496Z,23.70
2018-06-12T12:11:31.465Z,23.50
2018-06-12T12:12:31.428Z,23.50
2018-06-12T12:13:31.391Z,22.60
2018-06-12T12:14:31.355Z,23.30
2018-06-12T12:15:31.322Z,24.50
2018-06-12T12:16:31.289Z,23.60
2018-06-12T12:17:31.258Z,23.50
2018-06-12T12:18:31.219Z,23.90
2018-06-12T12:19:31.184Z,23.20
2018-06-12T12:20:31.162Z,23.00
2018-06-12T12:21:31.125Z,23.60
2018-06-12T12:22:31.088Z,22.90
2018-06-12T12:23:31.058Z,23.60
2018-06-12T12:24:31.026Z,22.70
2018-06-12T12:25:30.989Z,22.40
2018-06-12T12:26:30.950Z,22.00
2018-06-12T12:27:30.915Z,22.90
2018-06-12T12:28:30.900Z,23.20
2018-06-12T12:29:30.851Z,22.20
2018-06-12T12:30:30.819Z,22.20
2018-06-12T12:31:30.822Z,22.80
2018-06-12T12:32:30.747Z,22.70
2018-06-12T12:33:30.715Z,22.10
2018-06-12T12:34:30.682Z,21.70
2018-06-12T12:35:30.650Z,22.70
2018-06-12T12:36:30.618Z,23.20
2018-06-12T12:37:30.587Z,23.20
2018-06-12T12:38:30.556Z,22.20
2018-06-12T12:39:30.511Z,22.00
2018-06-12T12:40:30.483Z,22.60
2018-06-12T12:41:30.448Z,22.70
2018-06-12T12:42:30.418Z,21.00
2018-06-12T12:43:30.387Z,20.40
2018-06-12T12:44:30.342Z,20.40
2018-06-12T12:45:30.313Z,21.10
2018-06-12T12:46:30.278Z,21.10
2018-06-12T12:47:30.250Z,20.30
2018-06-12T12:48:30.211Z,20.80
2018-06-12T12:49:30.177Z,20.50
2018-06-12T12:50:30.144Z,20.80
2018-06-12T12:51:30.105Z,20.20
2018-06-12T12:52:30.081Z,20.10
2018-06-12T12:53:30.044Z,19.90
2018-06-12T12:54:30.015Z,20.20
2018-06-12T12:55:30.030Z,19.80
2018-06-12T12:56:29.940Z,19.80
2018-06-12T12:57:29.939Z,20.10
2018-06-12T12:58:29.876Z,19.50
2018-06-12T12:59:29.840Z,19.60
2018-06-12T13:00:29.810Z,20.10
2018-06-12T13:01:29.773Z,20.60
2018-06-12T13:02:29.749Z,20.10
2018-06-12T13:03:29.706Z,20.10
2018-06-12T13:04:29.697Z,21.00
2018-06-12T13:05:29.639Z,20.00
2018-06-12T13:06:29.603Z,20.50
2018-06-12T13:07:29.574Z,19.80
2018-06-12T13:08:29.545Z,19.40
2018-06-12T13:09:29.502Z,20.00
2018-06-12T13:10:29.477Z,19.60
2018-06-12T13:11:29.432Z,19.70
2018-06-12T13:12:29.410Z,19.70
2018-06-12T13:13:29.370Z,19.90
2018-06-12T13:14:29.343Z,19.60
2018-06-12T13:15:29.310Z,19.80
2018-06-12T13:16:29.264Z,18.80
2018-06-12T13:17:29.232Z,18.50
2018-06-12T13:18:29.214Z,19.10
2018-06-12T13:19:29.170Z,19.00
2018-06-12T13:20:29.141Z,19.40
2018-06-12T13:21:29.107Z,18.40
2018-06-12T13:22:29.067Z,19.40